Coram, NY (11727)

6:28 PM EDT on March 29, 2015 (GMT -0400)
KNYCORAM3 | | Change Station
CLOSE
Current Station
Personal Weather Station
Location: Coram, NY
Elevation: 72 ft
Nearby Weather Stations

Elev 72 ft 40.88 °N, 72.98 °W | Updated 15 seconds ago

Clear
Clear
38.7 °F
Feels Like 36 °F
N
4.0
Wind Variable Wind from WSW
Gusts 4.0 mph

Today
High -- | Low -- °F
--% Chance of Precip.
Yesterday
High -- | Low -- °F
Precip. -- in
6:40 AM 7:13 PM
Waxing Gibbous, 74% visible
Pressure 30.16 in
Visibility 10.0 miles
Clouds Few 26000 ft
Windchill 36 °F
Dew Point -4 °F
Humidity 16%
Rainfall 0.00 in
Snow Depth Not available.
UV 1 out of 12
Pollen 4.80 out of 12
Air Quality Not available.
Flu Activity Not available.
METAR KISP 292156Z 28007KT 10SM FEW260 06/M14 A3016 RMK AO2 SLP212 T00611144

More Conditions Fewer Conditions

Pressure 30.16 in
Visibility 10.0 miles
Clouds Few 26000 ft
Windchill 36 °F
Dew Point -4 °F
Humidity 16%
Rainfall 0.00 in
Snow Depth Not available.
UV 1 out of 12
Pollen 4.80 out of 12
Air Quality Not available.
Flu Activity Not available.
METAR KISP 292156Z 28007KT 10SM FEW260 06/M14 A3016 RMK AO2 SLP212 T00611144

More Conditions Fewer Conditions

10-Day Weather Forecast

Almanac

Astronomy

Mar. 29, 2015 Rise Set
Actual Time
Civil Twilight
Nautical Twilight
Astronomical Twilight
Moon
Length of Visible Light
Length of Day
Tomorrow will be .
, % of the Moon is Illuminated

Today's Extremes

State Highs State Lows

Community

WunderPhotos

Upload Photos

1,809,372 photos uploaded!

WunderBlogs® & News

Nearby

Air Quality

  Air Quality AQ Index Pollutant
Not available.

Snow Depth

Station Depth Elevation

Earthquake Activity

City Distance Mag. Time & Date
Minimum magnitude displayed is 2.5.

Coastal Water Temperatures

Place Temperature

Stations

Nearby Weather Stations

Station Location Temp. Windchill Dew Point Humidity Wind Precip. Elev Updated Type